createdAt,value
2023-02-16T00:08:20.481Z,25.35
2023-02-16T00:18:21.716Z,26.25
2023-02-16T00:28:23.030Z,27.13
2023-02-16T00:38:24.274Z,25.52
2023-02-16T00:48:25.505Z,25.88
2023-02-16T00:58:26.770Z,26.52
2023-02-16T01:08:46.985Z,27.23
2023-02-16T01:18:48.240Z,27.52
2023-02-16T01:28:49.657Z,28.23
2023-02-16T01:38:50.915Z,28.27
2023-02-16T01:48:52.205Z,28.23
2023-02-16T01:58:53.524Z,29.38
2023-02-16T02:08:54.753Z,28.70
2023-02-16T02:18:56.001Z,31.52
2023-02-16T02:28:57.233Z,30.35
2023-02-16T02:38:58.866Z,30.02
2023-02-16T02:49:00.143Z,32.13
2023-02-16T02:59:19.898Z,30.20
2023-02-16T03:09:21.140Z,29.80
2023-02-16T03:19:41.194Z,32.03
2023-02-16T03:29:42.454Z,30.95
2023-02-16T03:40:02.511Z,30.35
2023-02-16T03:50:03.714Z,30.70
2023-02-16T04:00:05.106Z,30.45
2023-02-16T04:10:06.377Z,33.67
2023-02-16T04:20:07.720Z,30.27
2023-02-16T04:30:09.067Z,30.70
2023-02-16T04:40:13.431Z,32.78
2023-02-16T04:50:14.683Z,30.77
2023-02-16T05:00:15.953Z,30.38
2023-02-16T05:10:17.186Z,31.70
2023-02-16T05:20:18.432Z,31.00
2023-02-16T05:30:20.010Z,30.75
2023-02-16T05:40:21.277Z,29.98
2023-02-16T05:50:22.552Z,31.67
2023-02-16T06:00:23.823Z,32.58
2023-02-16T06:10:25.225Z,30.48
2023-02-16T06:20:26.467Z,31.08
2023-02-16T06:30:27.930Z,30.58
2023-02-16T06:40:29.158Z,31.73
2023-02-16T06:50:30.385Z,30.95
2023-02-16T07:00:31.645Z,30.20
2023-02-16T07:10:47.663Z,31.10
2023-02-16T07:20:50.437Z,31.25
2023-02-16T07:30:51.921Z,33.25
2023-02-16T07:40:53.146Z,36.35
2023-02-16T07:50:54.543Z,34.83
2023-02-16T08:00:55.798Z,34.53
2023-02-16T08:10:57.014Z,37.38
2023-02-16T08:21:04.138Z,36.22
2023-02-16T08:31:06.454Z,38.20
2023-02-16T08:41:07.998Z,36.25
2023-02-16T08:51:09.965Z,39.08
2023-02-16T09:01:11.768Z,38.80
2023-02-16T09:11:13.077Z,38.60
2023-02-16T09:21:15.598Z,36.75
2023-02-16T09:31:17.164Z,33.53
2023-02-16T09:41:18.428Z,30.55
2023-02-16T09:51:20.928Z,27.13
2023-02-16T10:01:24.812Z,25.60
2023-02-16T10:11:38.211Z,22.65
2023-02-16T10:21:40.495Z,22.83
2023-02-16T10:31:44.803Z,20.48
2023-02-16T10:41:46.074Z,17.58
2023-02-16T10:51:48.846Z,15.15
2023-02-16T11:01:50.186Z,14.02
2023-02-16T11:11:51.460Z,14.05
2023-02-16T11:21:55.077Z,13.93
2023-02-16T11:31:56.592Z,13.10
2023-02-16T11:41:57.907Z,11.68
2023-02-16T11:51:59.136Z,11.23
2023-02-16T12:02:00.606Z,10.45
2023-02-16T12:12:02.928Z,10.38
2023-02-16T12:22:04.146Z,10.75
2023-02-16T12:32:05.625Z,10.43
2023-02-16T12:42:06.885Z,11.20
2023-02-16T12:52:08.129Z,11.68
2023-02-16T13:02:09.321Z,10.25
2023-02-16T13:12:11.475Z,9.05
2023-02-16T13:22:12.715Z,10.00
2023-02-16T13:42:15.655Z,8.27
2023-02-16T13:52:16.885Z,7.47
2023-02-16T14:02:18.322Z,8.32
2023-02-16T14:12:19.607Z,8.35
2023-02-16T14:22:21.103Z,8.75
2023-02-16T14:32:22.569Z,9.40
2023-02-16T14:42:23.791Z,10.55
2023-02-16T14:52:25.047Z,9.80
2023-02-16T15:02:26.275Z,9.80
2023-02-16T15:12:27.497Z,9.48
2023-02-16T15:22:29.934Z,8.07
2023-02-16T15:32:31.480Z,7.93
2023-02-16T15:42:34.158Z,7.45
2023-02-16T15:52:35.674Z,8.15
2023-02-16T16:02:36.931Z,7.80
2023-02-16T16:12:38.383Z,8.95
2023-02-16T16:22:39.703Z,9.00
2023-02-16T16:32:41.611Z,8.88
2023-02-16T16:42:42.828Z,10.75
2023-02-16T16:52:44.126Z,10.23
2023-02-16T17:02:45.428Z,11.05
2023-02-16T17:12:46.643Z,11.75
2023-02-16T17:22:47.862Z,10.45
2023-02-16T17:32:49.174Z,12.77
2023-02-16T17:42:50.415Z,11.38
2023-02-16T17:52:57.047Z,14.55
2023-02-16T18:02:58.316Z,16.55
2023-02-16T18:12:59.632Z,14.13
2023-02-16T18:23:01.318Z,18.05
2023-02-16T18:33:02.611Z,19.30
2023-02-16T18:43:03.853Z,19.05
2023-02-16T18:53:05.074Z,14.85
2023-02-16T19:03:06.334Z,16.23
2023-02-16T19:13:07.631Z,17.17
2023-02-16T19:23:08.874Z,13.73
2023-02-16T19:33:10.406Z,12.40
2023-02-16T19:43:11.664Z,11.00
2023-02-16T19:53:12.954Z,10.32
2023-02-16T20:03:14.183Z,10.07
2023-02-16T20:13:15.437Z,9.85
2023-02-16T20:23:16.656Z,11.88
2023-02-16T20:33:19.732Z,10.88
2023-02-16T20:43:21.007Z,12.10
2023-02-16T20:53:22.217Z,11.18
2023-02-16T21:03:23.459Z,11.20
2023-02-16T21:13:24.771Z,10.23
2023-02-16T21:23:26.014Z,10.02
2023-02-16T21:33:27.420Z,9.20
2023-02-16T21:43:28.643Z,8.93
2023-02-16T21:53:29.834Z,9.35
2023-02-16T22:03:31.046Z,8.38
2023-02-16T22:13:32.442Z,7.50
2023-02-16T22:23:33.706Z,8.02
2023-02-16T22:33:34.928Z,7.72
2023-02-16T22:43:36.156Z,7.80
2023-02-16T22:53:37.445Z,7.72
2023-02-16T23:03:38.707Z,7.40
2023-02-16T23:13:39.977Z,7.70
2023-02-16T23:23:41.238Z,7.63
2023-02-16T23:33:42.703Z,6.97
2023-02-16T23:43:43.955Z,7.10
2023-02-16T23:53:45.224Z,7.70
